Time;durP1;ratioP1;P1;durP2;ratioP2;P2;SDS_P1;SDS_P2;PMS_P1;PMS_P2;Temp;Humidity;BMP_temperature;BMP_pressure;BME280_temperature;BME280_humidity;BME280_pressure;Samples;Min_cycle;Max_cycle;Signal;HPM_P1;HPM_P2
2023/10/09 00:01:46;;;;;;;10.27;2.50;;;20.10;68.50;;;20.58;48.13;95442.56;5002899;28;21112;-60
2023/10/09 00:04:13;;;;;;;7.50;2.20;;;20.10;68.40;;;20.56;48.46;95431.22;4999768;28;20895;-59
2023/10/09 00:06:42;;;;;;;5.87;2.00;;;20.10;68.60;;;20.55;48.33;95426.91;5002254;28;20469;-60
2023/10/09 00:09:33;;;;;;;7.30;2.20;;;20.00;68.30;;;20.54;48.01;95435.94;5000096;28;20658;-61
2023/10/09 00:12:10;;;;;;;9.70;2.00;;;20.00;68.60;;;20.52;48.20;95437.13;5003062;28;20482;-59
2023/10/09 00:14:38;;;;;;;12.97;2.70;;;20.00;68.40;;;20.50;48.09;95434.66;5000061;28;20504;-60
2023/10/09 00:17:17;;;;;;;6.17;2.60;;;20.00;68.80;;;20.48;48.22;95436.69;5002939;28;20497;-60
2023/10/09 00:19:47;;;;;;;12.57;2.90;;;20.00;68.70;;;20.47;48.10;95434.22;5000333;28;20609;-60
2023/10/09 00:22:25;;;;;;;6.50;1.90;;;20.00;68.60;;;20.44;48.13;95429.25;5001986;28;20476;-59
2023/10/09 00:25:10;;;;;;;19.40;2.80;;;19.90;68.50;;;20.41;48.05;95435.78;5001155;28;20447;-59
2023/10/09 00:27:42;;;;;;;10.87;2.47;;;19.90;68.80;;;20.37;48.44;95431.81;5000636;28;20475;-59
2023/10/09 00:30:17;;;;;;;12.33;1.50;;;19.90;68.80;;;20.34;48.37;95424.16;5002823;28;20482;-61
2023/10/09 00:32:52;;;;;;;9.33;1.80;;;19.90;68.80;;;20.30;48.29;95426.41;5002988;28;20465;-60
2023/10/09 00:35:41;;;;;;;10.43;2.43;;;19.80;68.60;;;20.27;47.87;95425.94;4999674;28;20967;-65
2023/10/09 00:38:18;;;;;;;5.73;2.00;;;19.80;68.70;;;20.20;48.70;95413.34;5001191;28;20458;-60
2023/10/09 00:40:47;;;;;;;8.63;2.53;;;19.70;68.80;;;20.16;48.50;95424.59;5001906;28;20999;-61
2023/10/09 00:43:19;;;;;;;8.87;1.87;;;19.70;68.90;;;20.13;48.47;95433.78;5000012;28;20927;-61
2023/10/09 00:45:46;;;;;;;10.63;1.93;;;19.70;69.00;;;20.10;48.52;95442.16;5002641;28;20843;-60
2023/10/09 00:48:22;;;;;;;6.77;2.07;;;19.60;68.80;;;20.06;48.12;95433.69;4999580;28;20493;-60
2023/10/09 00:50:52;;;;;;;4.93;1.50;;;19.60;68.70;;;20.02;48.22;95432.41;5002574;28;20499;-60
2023/10/09 00:53:30;;;;;;;4.70;1.87;;;19.50;68.60;;;19.96;48.26;95438.47;4999199;28;21118;-61
2023/10/09 00:56:05;;;;;;;6.23;2.17;;;19.50;68.70;;;19.93;48.32;95438.84;5000464;28;20496;-59
2023/10/09 00:58:35;;;;;;;2.33;1.40;;;19.40;68.50;;;19.88;48.38;95446.59;5001306;28;20937;-60
2023/10/09 01:01:04;;;;;;;4.67;1.30;;;19.40;68.60;;;19.81;48.51;95445.66;4999392;28;20536;-60
2023/10/09 01:03:33;;;;;;;5.90;2.20;;;19.40;68.30;;;19.74;48.40;95450.88;5002054;28;20535;-60
2023/10/09 01:06:16;;;;;;;2.53;1.80;;;19.30;68.30;;;19.68;48.34;95459.59;5002824;28;20515;-60
2023/10/09 01:08:53;;;;;;;3.00;1.53;;;19.20;68.30;;;19.60;48.34;95449.84;5000050;28;20450;-60
2023/10/09 01:11:22;;;;;;;5.03;1.90;;;19.20;68.60;;;19.52;48.22;95458.75;5002520;28;20485;-59
2023/10/09 01:14:11;;;;;;;3.90;1.60;;;19.10;68.60;;;19.48;48.27;95461.97;5000179;28;20906;-60
2023/10/09 01:16:41;;;;;;;2.70;1.40;;;19.00;68.50;;;19.43;48.63;95475.03;4999496;28;20578;-61
2023/10/09 01:19:13;;;;;;;3.87;1.60;;;19.00;68.60;;;19.37;48.77;95481.06;5004997;28;20537;-60
2023/10/09 01:21:40;;;;;;;4.47;1.63;;;18.90;68.60;;;19.32;48.88;95493.09;5001113;28;20481;-59
2023/10/09 01:24:09;;;;;;;1.77;1.23;;;18.90;68.80;;;19.28;48.26;95488.31;5001549;28;20561;-61
2023/10/09 01:26:44;;;;;;;6.73;1.93;;;18.80;68.80;;;19.25;48.48;95478.00;5000081;28;20547;-61
2023/10/09 01:29:14;;;;;;;6.00;1.87;;;18.80;68.80;;;19.18;48.90;95464.56;5001082;28;20468;-61
2023/10/09 01:31:46;;;;;;;6.30;1.53;;;18.80;68.70;;;19.13;48.48;95454.41;5001570;28;20469;-60
2023/10/09 01:34:14;;;;;;;6.07;1.90;;;18.70;69.00;;;19.08;48.49;95453.28;5000408;28;20533;-60
2023/10/09 01:36:42;;;;;;;6.13;1.80;;;18.70;69.30;;;19.04;49.20;95470.63;5001851;28;20469;-59
2023/10/09 01:39:23;;;;;;;4.37;1.63;;;18.60;69.20;;;18.99;49.03;95485.34;5003281;28;20569;-60
2023/10/09 01:41:57;;;;;;;6.90;1.63;;;18.60;69.20;;;18.94;49.19;95494.88;4999226;28;20486;-60
2023/10/09 01:44:26;;;;;;;4.60;1.80;;;18.50;69.10;;;18.86;49.08;95503.75;5001204;28;20946;-61
2023/10/09 01:46:55;;;;;;;7.37;1.90;;;18.50;69.00;;;18.83;48.55;95495.25;5004969;28;20506;-60
2023/10/09 01:49:29;;;;;;;4.30;1.90;;;18.40;69.00;;;18.79;48.57;95500.09;5000797;28;20572;-59
2023/10/09 01:52:02;;;;;;;14.43;2.10;;;18.40;69.00;;;18.74;49.14;95497.94;5004941;28;20484;-60
2023/10/09 01:54:40;;;;;;;6.93;1.67;;;18.30;68.90;;;18.69;48.69;95510.16;5001842;28;20489;-60
2023/10/09 01:57:12;;;;;;;4.70;1.83;;;18.30;68.90;;;18.64;48.45;95516.81;5002488;28;20488;-60
2023/10/09 01:59:43;;;;;;;2.40;1.43;;;18.20;68.80;;;18.58;48.79;95517.50;5001999;28;20450;-60
2023/10/09 02:02:25;;;;;;;3.70;1.50;;;18.20;68.80;;;18.51;48.78;95507.72;4996801;28;20546;-58
2023/10/09 02:04:54;;;;;;;1.73;1.30;;;18.10;69.00;;;18.43;48.51;95501.44;5005406;28;20784;-60
2023/10/09 02:07:27;;;;;;;4.73;2.03;;;18.00;68.90;;;18.38;49.28;95508.28;4997769;28;20529;-60
2023/10/09 02:09:57;;;;;;;3.70;1.50;;;18.00;69.30;;;18.29;48.94;95520.78;5002557;28;20818;-59
2023/10/09 02:12:33;;;;;;;8.53;1.50;;;17.90;69.40;;;18.22;49.55;95520.66;5002535;28;20491;-61
2023/10/09 02:15:06;;;;;;;3.93;1.70;;;17.80;69.50;;;18.18;49.02;95529.16;4999654;28;20449;-61
2023/10/09 02:17:34;;;;;;;5.63;2.10;;;17.80;70.40;;;18.15;48.97;95537.47;5000690;28;20492;-63
2023/10/09 02:20:16;;;;;;;7.80;1.43;;;17.70;69.70;;;18.13;49.73;95550.16;5001158;28;20489;-60
2023/10/09 02:22:43;;;;;;;2.70;1.20;;;17.70;69.70;;;18.10;49.58;95546.81;4996944;28;20451;-60
2023/10/09 02:25:12;;;;;;;11.20;1.87;;;17.70;69.80;;;18.08;49.86;95546.16;5001605;28;20625;-59
2023/10/09 02:27:53;;;;;;;13.80;1.50;;;17.70;70.00;;;18.06;49.73;95560.63;5001046;28;20470;-60
2023/10/09 02:30:26;;;;;;;3.20;1.50;;;17.70;70.20;;;18.04;49.29;95567.94;5003937;28;21075;-59
2023/10/09 02:33:03;;;;;;;4.13;1.83;;;17.60;70.00;;;18.00;49.52;95564.81;4999102;28;20438;-61
2023/10/09 02:35:38;;;;;;;3.77;1.40;;;17.60;70.30;;;17.98;49.57;95571.28;4997940;28;20934;-59
2023/10/09 02:38:14;;;;;;;3.57;1.50;;;17.60;70.20;;;17.94;50.04;95572.63;5000085;28;20544;-59
2023/10/09 02:41:17;;;;;;;4.90;1.93;;;17.50;70.60;;;17.88;49.68;95571.44;4995815;28;20469;-60
2023/10/09 02:43:34;;;;;;;6.00;1.60;;;17.50;70.60;;;17.81;50.27;95568.59;4997006;28;20529;-59
2023/10/09 02:46:13;;;;;;;1.33;1.10;;;17.40;70.50;;;17.74;50.25;95554.31;4998350;28;20549;-61
2023/10/09 02:48:45;;;;;;;1.80;1.37;;;17.40;71.10;;;17.66;50.46;95552.50;4994774;28;21025;-60
2023/10/09 02:51:21;;;;;;;12.90;1.30;;;17.30;71.00;;;17.61;50.56;95546.81;5003340;28;20496;-61
2023/10/09 02:53:49;;;;;;;3.77;2.17;;;17.20;71.00;;;17.56;50.28;95557.13;4994274;28;20462;-58
2023/10/09 02:56:23;;;;;;;2.30;2.10;;;17.20;71.20;;;17.50;50.79;95560.47;5006528;28;20477;-60
2023/10/09 02:58:51;;;;;;;4.27;1.30;;;17.10;71.20;;;17.45;50.53;95562.78;5008678;28;20446;-59
2023/10/09 03:01:19;;;;;;;9.23;1.53;;;17.10;71.10;;;17.41;50.36;95562.28;5004613;28;20474;-61
2023/10/09 03:03:47;;;;;;;3.57;1.23;;;17.00;71.20;;;17.37;50.43;95579.56;5004518;28;20450;-59
2023/10/09 03:06:19;;;;;;;4.60;1.60;;;17.00;71.40;;;17.34;50.49;95583.38;5000500;28;20482;-60
2023/10/09 03:08:47;;;;;;;2.00;1.27;;;16.90;71.30;;;17.32;50.40;95585.38;5003993;28;20826;-59
2023/10/09 03:11:15;;;;;;;2.67;1.47;;;16.90;71.30;;;17.28;50.59;95592.00;5002141;28;20879;-61
2023/10/09 03:13:45;;;;;;;1.63;1.53;;;16.90;71.60;;;17.24;50.66;95598.66;4998926;28;20458;-60
2023/10/09 03:16:19;;;;;;;3.00;1.30;;;16.90;71.60;;;17.19;50.64;95593.00;5006734;28;20493;-60
2023/10/09 03:18:48;;;;;;;7.03;1.50;;;16.80;71.80;;;17.13;51.10;95593.66;5004741;28;20441;-59
2023/10/09 03:21:16;;;;;;;2.20;1.50;;;16.70;72.00;;;17.08;51.00;95595.97;5001943;28;20571;-60
2023/10/09 03:23:44;;;;;;;2.30;1.37;;;16.70;71.80;;;17.03;50.86;95599.13;5003038;28;20466;-61
2023/10/09 03:26:12;;;;;;;4.23;1.60;;;16.70;71.80;;;16.98;50.68;95606.75;5007364;28;20539;-60
2023/10/09 03:28:39;;;;;;;3.30;1.20;;;16.60;71.80;;;16.95;50.68;95607.06;5005337;28;20484;-58
2023/10/09 03:31:10;;;;;;;8.43;1.43;;;16.60;71.80;;;16.91;50.84;95611.03;5007564;28;20481;-60
2023/10/09 03:33:38;;;;;;;5.00;0.90;;;16.50;71.80;;;16.87;50.62;95609.69;5004764;28;20442;-60
2023/10/09 03:36:09;;;;;;;1.40;1.20;;;16.50;72.10;;;16.83;50.92;95620.59;5005689;28;20564;-60
2023/10/09 03:38:38;;;;;;;5.47;1.43;;;16.50;72.20;;;16.82;50.73;95629.56;5002466;28;20468;-60
2023/10/09 03:41:06;;;;;;;3.13;1.03;;;16.50;72.20;;;16.81;51.08;95627.06;5003260;28;20588;-60
2023/10/09 03:43:38;;;;;;;2.80;1.37;;;16.50;72.10;;;16.79;50.71;95629.91;5001889;28;20458;-60
2023/10/09 03:46:20;;;;;;;1.80;1.17;;;16.40;72.00;;;16.76;50.91;95627.56;5002247;28;20462;-58
2023/10/09 03:48:48;;;;;;;5.13;1.50;;;16.40;72.00;;;16.74;50.67;95626.88;5000925;28;20447;-60
2023/10/09 03:51:21;;;;;;;3.20;1.53;;;16.40;72.10;;;16.71;50.92;95627.19;5002371;28;21084;-60
2023/10/09 03:53:48;;;;;;;1.27;1.07;;;16.40;72.00;;;16.68;50.71;95632.81;5001096;28;20465;-60
2023/10/09 03:56:16;;;;;;;1.17;1.00;;;16.30;72.00;;;16.66;50.80;95634.81;5002184;28;20481;-60
2023/10/09 03:58:44;;;;;;;2.23;1.23;;;16.30;71.80;;;16.63;50.64;95635.13;5003848;28;20451;-60
2023/10/09 04:01:22;;;;;;;1.30;1.20;;;16.30;72.00;;;16.61;50.70;95637.09;5008111;28;21386;-60
2023/10/09 04:03:49;;;;;;;3.37;1.50;;;16.20;71.90;;;16.57;50.72;95641.06;5003711;28;20477;-59
2023/10/09 04:06:17;;;;;;;9.23;1.20;;;16.20;71.90;;;16.53;50.79;95642.34;5000968;28;20933;-60
2023/10/09 04:08:48;;;;;;;6.27;1.47;;;16.20;71.90;;;16.51;50.84;95652.31;5002249;28;20485;-61
2023/10/09 04:11:22;;;;;;;6.80;1.50;;;16.20;71.90;;;16.48;51.06;95648.13;5000644;28;20897;-61
2023/10/09 04:13:51;;;;;;;5.00;1.20;;;16.10;71.80;;;16.42;50.97;95639.00;5002897;28;20535;-60
2023/10/09 04:16:34;;;;;;;2.30;1.07;;;16.10;71.90;;;16.41;51.07;95639.97;4999537;28;20485;-61
2023/10/09 04:19:10;;;;;;;5.77;1.03;;;16.10;72.60;;;16.43;51.06;95645.13;5005301;28;20450;-61
2023/10/09 04:21:37;;;;;;;3.60;1.23;;;16.00;72.60;;;16.45;51.34;95648.47;5002557;28;20847;-61
2023/10/09 04:24:23;;;;;;;3.47;1.00;;;16.00;72.90;;;16.45;50.67;95646.66;5001355;28;20575;-60
2023/10/09 04:26:55;;;;;;;4.00;1.60;;;16.10;72.00;;;16.47;50.39;95643.84;5002721;28;20473;-60
2023/10/09 04:29:26;;;;;;;1.50;1.40;;;16.10;71.50;;;16.48;50.26;95653.44;5005246;28;20454;-60
2023/10/09 04:31:56;;;;;;;2.63;1.27;;;16.10;71.80;;;16.51;50.33;95649.66;4998691;28;21042;-61
2023/10/09 04:34:28;;;;;;;3.50;1.40;;;16.10;71.80;;;16.54;50.23;95660.78;5002180;28;20488;-61
2023/10/09 04:37:00;;;;;;;2.47;1.13;;;16.10;70.80;;;16.53;49.93;95653.84;4999725;28;20475;-60
2023/10/09 04:39:37;;;;;;;1.00;0.90;;;16.10;70.60;;;16.53;49.61;95652.97;5001991;28;20485;-60
2023/10/09 04:42:26;;;;;;;1.83;1.20;;;16.10;70.30;;;16.53;49.51;95656.50;5000623;28;20469;-59
2023/10/09 04:47:49;;;;;;;2.10;1.30;;;16.10;69.90;;;16.48;49.36;95653.44;5006165;28;20891;-60
2023/10/09 04:50:36;;;;;;;3.83;1.30;;;16.10;69.60;;;16.46;49.77;95650.94;5000738;28;20483;-59
2023/10/09 04:53:22;;;;;;;5.67;2.03;;;16.10;70.20;;;16.48;49.51;95653.44;5001572;28;20446;-61
2023/10/09 04:55:55;;;;;;;3.10;1.53;;;16.10;69.90;;;16.51;49.35;95650.47;5008593;28;20476;-59
2023/10/09 04:58:25;;;;;;;6.63;1.33;;;16.10;69.70;;;16.55;49.03;95656.34;5004271;28;20462;-59
2023/10/09 05:01:11;;;;;;;5.07;1.67;;;16.20;69.30;;;16.58;48.91;95661.34;4997614;28;20655;-59
2023/10/09 05:03:44;;;;;;;1.17;0.90;;;16.20;69.30;;;16.54;48.74;95657.31;4999245;28;20476;-59
2023/10/09 05:09:07;;;;;;;3.23;1.20;;;16.20;68.80;;;16.53;48.58;95666.25;5000263;28;20426;-59
2023/10/09 05:11:36;;;;;;;1.23;1.13;;;16.20;68.50;;;16.49;48.26;95666.56;5002883;28;20556;-59
2023/10/09 05:14:12;;;;;;;2.13;1.10;;;16.10;68.00;;;16.44;48.22;95676.03;5000486;28;20533;-59
2023/10/09 05:16:53;;;;;;;3.10;1.40;;;16.10;67.90;;;16.43;48.31;95677.81;4998317;28;20474;-61
2023/10/09 05:19:42;;;;;;;4.30;1.60;;;16.10;67.70;;;16.40;48.22;95679.97;4999428;28;20942;-60
2023/10/09 05:22:29;;;;;;;1.10;1.00;;;16.00;67.40;;;16.37;47.74;95688.25;4998326;28;20506;-59
2023/10/09 05:24:58;;;;;;;1.17;1.07;;;16.00;67.30;;;16.36;47.70;95684.75;4999400;28;20453;-59
2023/10/09 05:30:24;;;;;;;5.23;1.40;;;16.00;66.80;;;16.35;47.69;95698.19;4998706;28;20846;-59
2023/10/09 05:32:55;;;;;;;1.40;1.30;;;16.00;66.70;;;16.33;47.58;95703.66;4998276;28;20451;-61
2023/10/09 05:35:39;;;;;;;5.43;1.57;;;16.00;66.60;;;16.33;47.40;95701.00;5001420;28;20453;-60
2023/10/09 05:38:22;;;;;;;2.87;1.40;;;16.00;66.40;;;16.33;47.41;95698.34;4999819;28;21093;-60
2023/10/09 05:40:53;;;;;;;3.10;2.20;;;16.00;66.40;;;16.37;47.46;95714.78;4998123;28;20569;-61
2023/10/09 05:46:14;;;;;;;10.27;1.60;;;16.10;66.40;;;16.49;47.13;95724.16;5000697;28;20505;-58
2023/10/09 05:48:54;;;;;;;10.03;1.87;;;16.10;66.40;;;16.60;47.08;95731.06;4998320;28;21041;-61
2023/10/09 06:05:40;;;;;;;3.00;1.83;;;17.20;64.60;;;18.05;44.81;95754.13;4997791;28;20426;-60
2023/10/09 06:08:06;;;;;;;6.30;1.20;;;17.50;64.00;;;18.39;44.51;95765.66;4998092;28;20431;-59
2023/10/09 06:10:40;;;;;;;5.10;1.20;;;17.80;63.40;;;18.68;44.39;95764.28;5000101;28;20473;-60
2023/10/09 06:13:37;;;;;;;1.60;1.50;;;18.10;62.70;;;18.99;42.82;95749.28;4998604;28;20448;-59
2023/10/09 06:18:53;;;;;;;8.97;1.20;;;18.70;60.60;;;19.69;42.32;95762.88;4969009;28;20530;-59
2023/10/09 06:22:01;;;;;;;5.13;1.63;;;19.10;59.80;;;20.00;41.54;95773.56;4997238;28;20533;-60
2023/10/09 06:24:41;;;;;;;1.90;1.00;;;19.40;59.40;;;20.30;40.89;95776.38;5000378;28;20446;-60
2023/10/09 06:27:24;;;;;;;9.93;1.50;;;19.70;58.60;;;20.58;40.21;95781.19;4999855;28;20474;-60
2023/10/09 06:30:14;;;;;;;8.90;1.30;;;20.00;58.00;;;20.98;39.86;95775.69;4999934;28;20439;-60
2023/10/09 06:32:50;;;;;;;1.90;1.10;;;20.30;57.30;;;21.42;39.23;95777.53;5001403;28;20557;-60
2023/10/09 06:35:18;;;;;;;3.83;1.50;;;20.70;56.80;;;21.83;38.89;95777.09;5004158;28;20452;-60
2023/10/09 06:43:26;;;;;;;2.17;1.10;;;22.00;54.90;;;23.09;36.82;95782.03;5002285;28;21104;-59
2023/10/09 06:45:57;;;;;;;4.57;1.83;;;22.40;54.50;;;23.52;36.50;95787.28;5002596;28;20500;-60
2023/10/09 06:48:44;;;;;;;1.90;1.17;;;22.80;53.60;;;23.96;35.53;95780.66;5003524;28;20982;-60
2023/10/09 06:51:15;;;;;;;3.33;1.40;;;23.20;53.40;;;24.50;35.41;95770.88;5002138;28;20506;-60
2023/10/09 06:54:05;;;;;;;2.70;1.80;;;23.70;52.70;;;24.99;34.63;95766.16;5003035;28;20453;-60
2023/10/09 06:59:23;;;;;;;2.07;1.87;;;24.60;51.30;;;25.91;33.34;95776.13;5001398;28;20529;-60
2023/10/09 07:02:25;;;;;;;1.93;1.23;;;25.10;49.70;;;26.26;33.32;95784.72;5004278;28;20484;-59
2023/10/09 07:04:47;;;;;;;9.60;2.23;;;25.40;50.30;;;26.67;32.78;95777.22;5002682;28;20426;-60
2023/10/09 07:07:16;;;;;;;23.20;1.90;;;25.80;49.80;;;27.06;32.32;95761.72;5001418;28;20555;-60
2023/10/09 07:10:28;;;;;;;8.73;1.37;;;26.20;48.00;;;27.48;31.73;95769.25;5004070;28;20453;-60
2023/10/09 07:12:32;;;;;;;2.87;1.30;;;26.70;48.00;;;27.95;31.35;95768.72;5002834;28;20810;-60
2023/10/09 07:17:45;;;;;;;1.77;1.10;;;27.60;46.40;;;28.82;30.40;95773.00;5004178;28;20861;-60
2023/10/09 07:20:15;;;;;;;2.90;1.60;;;28.10;45.60;;;29.15;29.43;95780.53;5000800;28;20842;-60
2023/10/09 07:22:56;;;;;;;1.43;1.13;;;28.60;44.00;;;29.39;28.07;95776.00;5004289;28;20593;-60
2023/10/09 07:25:40;;;;;;;1.93;1.20;;;28.90;42.80;;;29.60;28.98;95771.03;5002623;28;20215;-60
2023/10/09 07:28:28;;;;;;;3.73;1.20;;;29.20;43.10;;;29.81;28.31;95773.13;5000623;28;20226;-60
2023/10/09 07:30:58;;;;;;;1.47;1.20;;;29.50;42.30;;;30.08;27.41;95778.00;5001549;28;20235;-59
2023/10/09 07:33:51;;;;;;;3.67;1.07;;;29.70;41.10;;;30.26;27.19;95777.03;5004067;28;20291;-61
2023/10/09 07:36:29;;;;;;;2.10;1.00;;;30.00;40.30;;;30.51;26.64;95784.03;5002921;28;20231;-62
2023/10/09 07:38:59;;;;;;;2.63;1.40;;;30.30;40.20;;;30.68;26.45;95793.03;5000473;28;20720;-61
2023/10/09 07:41:37;;;;;;;9.73;1.37;;;30.50;39.70;;;30.92;25.94;95782.00;4999553;28;20721;-60
2023/10/09 07:47:13;;;;;;;2.97;1.13;;;30.90;39.00;;;31.33;25.68;95771.81;4998705;28;20223;-60
2023/10/09 07:49:39;;;;;;;1.05;0.95;;;31.10;38.50;;;31.51;25.54;95769.91;5002588;28;20330;-61
2023/10/09 07:52:06;;;;;;;3.38;1.23;;;31.20;38.30;;;31.64;24.55;95773.09;5001516;28;20245;-61
2023/10/09 07:54:36;;;;;;;2.05;1.38;;;31.20;37.40;;;31.78;24.60;95772.75;5002043;28;20746;-59
2023/10/09 07:57:15;;;;;;;5.25;1.88;;;31.20;37.20;;;31.90;24.27;95780.78;5001452;28;20303;-59
2023/10/09 07:59:54;;;;;;;3.67;1.38;;;31.40;36.70;;;31.93;23.91;95781.13;5003594;28;20202;-61
2023/10/09 08:02:31;;;;;;;3.92;1.50;;;31.40;36.00;;;31.91;23.76;95783.25;5003350;28;20233;-61
2023/10/09 08:05:04;;;;;;;4.03;1.35;;;31.40;36.00;;;31.90;23.65;95783.50;5001219;28;20297;-61
2023/10/09 08:07:54;;;;;;;1.58;1.08;;;31.30;35.30;;;31.94;23.38;95771.03;5002715;28;20223;-61
2023/10/09 08:16:01;;;;;;;2.80;0.93;;;31.20;34.20;;;31.83;21.30;95780.97;5003691;28;20230;-60
2023/10/09 08:18:31;;;;;;;2.43;1.73;;;31.20;33.40;;;31.77;22.59;95782.78;4999570;28;20294;-59
2023/10/09 08:23:49;;;;;;;7.13;2.50;;;31.00;34.10;;;31.70;22.28;95776.72;5001659;28;20233;-61
2023/10/09 08:26:28;;;;;;;12.60;2.42;;;31.00;33.70;;;31.69;22.24;95768.81;5000615;28;20230;-61
2023/10/09 08:29:15;;;;;;;7.50;1.80;;;30.90;33.70;;;31.69;21.96;95766.91;5002813;28;20264;-64
2023/10/09 08:31:47;;;;;;;5.63;2.07;;;30.90;33.50;;;31.73;22.15;95765.34;5002364;28;20250;-60
2023/10/09 08:34:24;;;;;;;17.23;5.10;;;30.90;33.60;;;31.73;22.13;95764.50;4999967;28;20198;-61
2023/10/09 08:36:53;;;;;;;2.37;2.17;;;30.90;33.20;;;31.74;21.28;95761.53;5002850;28;20218;-61
2023/10/09 08:39:29;;;;;;;6.63;1.80;;;30.90;32.90;;;31.75;21.35;95752.31;4999823;28;20211;-61
2023/10/09 08:41:57;;;;;;;3.40;1.67;;;30.90;32.30;;;31.74;20.47;95742.50;5001308;28;20272;-61
2023/10/09 08:44:27;;;;;;;4.20;1.70;;;30.90;31.60;;;31.69;20.95;95742.44;5000544;28;20281;-62
2023/10/09 08:46:57;;;;;;;1.67;1.50;;;30.90;31.60;;;31.62;21.33;95741.78;5001203;28;20234;-60
2023/10/09 08:49:25;;;;;;;2.50;1.43;;;30.90;31.90;;;31.63;21.20;95730.66;5001239;28;20198;-62
2023/10/09 08:51:53;;;;;;;4.03;1.80;;;30.80;31.70;;;31.67;20.96;95722.84;5000801;28;20245;-59
2023/10/09 08:54:20;;;;;;;10.33;1.40;;;30.80;31.50;;;31.66;20.59;95729.34;4999783;28;20222;-61
2023/10/09 08:56:50;;;;;;;1.63;1.43;;;30.80;31.30;;;31.57;21.41;95739.00;5000567;28;20379;-62
2023/10/09 08:59:19;;;;;;;4.40;1.30;;;30.80;31.60;;;31.52;21.38;95736.19;5000896;28;20217;-61
2023/10/09 09:01:49;;;;;;;3.50;2.53;;;30.70;31.70;;;31.49;20.83;95731.25;5000375;28;20246;-60
2023/10/09 09:04:39;;;;;;;10.93;1.63;;;30.70;31.50;;;31.52;20.16;95726.13;5000619;28;20199;-61
2023/10/09 09:07:06;;;;;;;2.40;1.30;;;30.70;30.60;;;31.46;21.00;95725.25;4999876;28;20258;-60
2023/10/09 09:09:34;;;;;;;2.73;1.30;;;30.60;31.10;;;31.44;20.52;95730.09;5001492;28;20238;-61
2023/10/09 09:12:02;;;;;;;25.93;1.87;;;30.60;30.90;;;31.50;21.30;95733.72;4999531;28;20274;-60
2023/10/09 09:14:38;;;;;;;3.30;1.50;;;30.70;31.50;;;31.57;20.65;95733.56;5000767;28;20624;-61
2023/10/09 09:17:10;;;;;;;3.83;1.70;;;30.70;31.50;;;31.56;20.83;95738.19;5000255;28;20309;-61
2023/10/09 09:19:39;;;;;;;3.03;1.90;;;30.70;31.50;;;31.59;20.88;95731.44;4999219;28;20279;-60
2023/10/09 09:22:12;;;;;;;4.40;2.00;;;30.80;31.60;;;31.58;20.80;95735.22;5000857;28;20226;-61
2023/10/09 09:24:45;;;;;;;5.00;1.80;;;30.80;31.50;;;31.58;20.87;95738.75;4998470;28;20202;-60
2023/10/09 09:27:20;;;;;;;2.70;1.87;;;30.80;31.20;;;31.60;20.87;95722.19;5001515;28;20328;-60
2023/10/09 09:29:53;;;;;;;2.53;2.33;;;30.80;31.00;;;31.64;20.69;95723.34;4998855;28;20198;-61
2023/10/09 09:32:35;;;;;;;3.27;1.50;;;30.80;31.00;;;31.64;19.73;95724.16;5000122;28;20284;-61
2023/10/09 09:35:05;;;;;;;3.77;2.07;;;30.90;30.80;;;31.61;21.00;95715.69;5000825;28;20208;-61
2023/10/09 09:37:38;;;;;;;3.70;1.53;;;30.90;31.00;;;31.53;20.54;95710.66;4997669;28;20293;-60
2023/10/09 09:40:14;;;;;;;3.03;1.90;;;30.80;30.60;;;31.41;20.19;95717.00;5001101;28;20240;-60
2023/10/09 09:42:44;;;;;;;2.40;1.60;;;30.70;30.80;;;31.31;20.88;95713.31;4999958;28;20249;-60
2023/10/09 09:45:12;;;;;;;8.83;2.30;;;30.60;30.40;;;31.16;20.11;95711.22;5000608;28;20260;-60
2023/10/09 09:47:39;;;;;;;10.37;3.57;;;30.50;30.20;;;31.04;20.25;95711.31;4999286;28;20218;-60
2023/10/09 09:50:13;;;;;;;1.00;0.83;;;30.40;30.30;;;31.01;20.77;95707.19;5000126;28;20203;-59
2023/10/09 09:52:41;;;;;;;2.30;1.43;;;30.30;30.40;;;31.01;20.88;95715.34;5000376;28;20605;-61
2023/10/09 09:55:14;;;;;;;8.30;1.60;;;30.30;30.60;;;30.99;20.31;95700.38;4999562;28;20206;-61
2023/10/09 09:57:45;;;;;;;3.57;1.43;;;30.30;30.40;;;30.95;20.15;95683.69;5001213;28;20314;-61
2023/10/09 10:00:28;;;;;;;2.07;1.80;;;30.20;30.00;;;30.89;20.67;95690.13;4998830;28;20210;-62
2023/10/09 10:02:57;;;;;;;5.33;1.70;;;30.10;30.10;;;30.79;20.02;95692.72;5000955;28;20208;-61
2023/10/09 10:05:29;;;;;;;1.83;1.50;;;30.10;30.10;;;30.65;20.31;95686.78;4998775;28;20207;-61
2023/10/09 10:07:58;;;;;;;3.50;2.07;;;30.00;29.90;;;30.55;19.81;95679.28;5000098;28;20301;-60
2023/10/09 10:10:52;;;;;;;5.23;1.73;;;29.90;29.80;;;30.43;19.61;95679.38;4999483;28;20203;-62
2023/10/09 10:13:56;;;;;;;2.10;1.80;;;29.80;29.40;;;30.29;20.01;95667.16;4998325;28;20325;-60
2023/10/09 10:16:23;;;;;;;2.90;1.30;;;29.60;30.00;;;30.12;19.98;95653.56;4999908;28;20312;-61
2023/10/09 10:18:59;;;;;;;4.47;1.60;;;29.50;30.10;;;30.03;20.21;95639.56;4999496;28;20198;-61
2023/10/09 10:21:39;;;;;;;6.20;2.33;;;29.40;30.00;;;29.92;19.90;95643.16;5000944;28;20232;-60
2023/10/09 10:24:52;;;;;;;4.40;3.40;;;29.30;30.20;;;29.76;19.31;95634.69;4998026;28;20663;-60
2023/10/09 10:27:26;;;;;;;15.30;9.93;;;29.10;30.00;;;29.61;20.18;95629.00;5000353;28;20496;-59
2023/10/09 10:30:33;;;;;;;18.87;13.37;;;29.00;30.00;;;29.47;19.61;95626.53;4997978;28;20195;-60
2023/10/09 10:33:09;;;;;;;6.53;5.83;;;28.80;29.90;;;29.39;20.28;95616.09;5001318;28;20233;-60
2023/10/09 10:35:44;;;;;;;10.83;8.17;;;28.80;30.30;;;29.30;20.87;95612.91;4999511;28;20616;-60
2023/10/09 10:38:32;;;;;;;4.37;2.93;;;28.70;30.50;;;29.14;19.83;95600.06;4998709;28;20210;-60
2023/10/09 10:41:19;;;;;;;1.70;1.60;;;28.50;29.90;;;28.79;20.88;95592.84;4998168;28;20469;-60
2023/10/09 10:43:54;;;;;;;5.57;5.03;;;28.30;30.60;;;28.55;20.69;95587.44;4997936;28;20454;-60
2023/10/09 10:46:37;;;;;;;31.67;20.10;;;28.00;31.60;;;28.40;20.96;95589.78;4998244;28;20547;-60
2023/10/09 10:49:15;;;;;;;26.40;16.47;;;27.90;31.40;;;28.34;21.44;95585.28;4998866;28;20445;-61
2023/10/09 10:51:47;;;;;;;20.10;15.47;;;27.80;31.60;;;28.29;21.68;95582.44;4998036;28;20466;-60
2023/10/09 10:57:29;;;;;;;13.13;6.27;;;27.70;31.90;;;28.24;21.09;95575.88;4997620;28;20281;-61
2023/10/09 11:00:13;;;;;;;3.13;1.87;;;27.60;31.90;;;28.01;21.35;95573.13;5000239;28;20474;-61
2023/10/09 11:02:48;;;;;;;7.10;2.10;;;27.50;31.50;;;27.70;21.26;95575.84;4998352;28;20561;-62
2023/10/09 11:05:23;;;;;;;7.60;4.23;;;27.20;31.70;;;27.50;22.08;95570.72;4999645;28;20510;-62
2023/10/09 11:07:55;;;;;;;4.47;4.07;;;27.00;32.20;;;27.36;21.67;95556.56;5000081;28;20452;-62
2023/10/09 11:10:31;;;;;;;4.33;2.90;;;26.90;32.20;;;27.19;21.88;95553.63;4998206;28;20529;-61
2023/10/09 11:15:55;;;;;;;7.53;5.67;;;26.50;31.30;;;26.83;21.97;95549.09;4999016;28;20500;-60
2023/10/09 11:18:25;;;;;;;2.13;1.90;;;26.30;32.10;;;26.71;21.78;95532.00;5001636;28;20545;-61
2023/10/09 11:21:22;;;;;;;3.37;2.60;;;26.20;31.80;;;26.54;22.09;95529.03;5001282;28;20476;-61
2023/10/09 11:23:53;;;;;;;3.20;3.00;;;26.00;32.40;;;26.36;22.25;95525.28;5004339;28;20493;-60
2023/10/09 11:26:27;;;;;;;6.60;4.30;;;25.90;32.50;;;26.23;22.80;95525.44;5001179;28;20505;-60
2023/10/09 11:29:15;;;;;;;30.00;13.90;;;25.70;33.10;;;26.17;22.82;95523.63;5003623;28;20478;-61
2023/10/09 11:31:45;;;;;;;23.23;4.50;;;25.60;33.50;;;26.18;22.46;95533.34;5004533;28;20487;-61
2023/10/09 11:34:28;;;;;;;2.47;1.77;;;25.60;33.30;;;26.09;22.39;95519.31;5000674;28;20505;-61
2023/10/09 11:36:58;;;;;;;4.57;1.60;;;25.60;33.50;;;26.03;22.87;95518.34;5002871;28;20473;-60
2023/10/09 11:39:31;;;;;;;1.70;1.60;;;25.50;33.20;;;25.92;22.66;95517.16;5002325;28;21067;-61
2023/10/09 11:42:06;;;;;;;3.13;1.40;;;25.40;33.10;;;25.81;22.81;95509.78;5003313;28;20489;-61
2023/10/09 11:44:40;;;;;;;8.50;1.53;;;25.30;33.40;;;25.75;22.43;95494.50;5004564;28;20786;-60
2023/10/09 11:47:32;;;;;;;3.63;2.00;;;25.20;33.40;;;25.73;22.80;95492.03;5000964;28;20473;-60